Aviation Digital Data Service (ADDS)

Output produced by METARs form (0655 UTC 20 March 2019)
found at http://www.aviationweather.gov/metar/data/
 
Forecast for: EPKK (KRAKOW/BALICE , PL)
Text: TAF EPKK 200530Z 2006/2106 VRB02KT CAVOK
Forecast period: 0600 UTC 20 March 2019 to 0600 UTC 21 March 2019
Forecast type: FROM: standard forecast or significant change
Winds: variable direction winds at 2 MPH (2 knots; 1.0 m/s)
Visibility: 6 or more miles 10+ km)
Ceiling: unknown
Clouds: missing
Weather: NSW  (no significant weather)
Text: TEMPO 2006/2007 4000 BR
Forecast period: 0600 to 0700 UTC 20 March 2019
Forecast type: TEMPORARY: The following changes expected for less than half the time period
Visibility: 2.49 miles (4.01 km)
Ceiling: unknown
Clouds: missing
Weather: BR  (mist)
Text: PROB30 2100/2106 4000 BR
Forecast period: 0000 to 0600 UTC 21 March 2019
Forecast type: PROBABLE: 30 percent likelihood of the following during this time
Visibility: 2.49 miles (4.01 km)
Ceiling: unknown
Clouds: missing
Weather: BR  (mist)